Terminal Aerodrome Forecast
Issued by NWS

Home | Current Version | Previous Version | Text Only | Print | Product List | Glossary On
Versions: 1 2 3 4 5 6 7 8 9 10 11 12 13 14 15 16 17 18 19 20 21 22
000
FTUS42 KFFC 280202 AAA
TAFRYY
TAF AMD
KRYY 280202Z 2802/2824 35005KT P6SM FEW250
     FM280500 03005KT P6SM FEW120
     FM280800 06006KT P6SM SCT020 BKN110
     FM281100 07007KT P6SM BKN015 BKN100
     FM281500 08011G18KT P6SM BKN025 BKN090
     FM281700 08010G16KT P6SM SCT035 BKN080=

USA.gov is the U.S. government's official web portal to all federal, state and local government web resources and services.